Weather reports worldwide

Advertisment
Martina Franca, Italy (16318): temperature & dewpoint: 16.07.2019 21:00:00 - 22.07.2019 21:00:00 (CEST)Martina Franca, Italy (16318): wind speed: 16.07.2019 21:00:00 - 22.07.2019 21:00:00 (CEST)Martina Franca, Italy (16318): wind direction: 16.07.2019 21:00:00 - 22.07.2019 21:00:00 (CEST)Martina Franca, Italy (16318): reduced air pressure: 16.07.2019 21:00:00 - 22.07.2019 21:00:00 (CEST)Martina Franca, Italy (16318): precipitation: 16.07.2019 21:00:00 - 22.07.2019 21:00:00 (CEST)
Date & Time tt [°C] td [°C] ff [km/h] ff [kn] dd ppp [hPa] rr [mm]
22.07.2019 21:00:00 - - - - - - -
22.07.2019 20:00:00 25,4 19,2 28 15 N 1018,2 -
22.07.2019 19:00:00 28,4 16,9 26 14 N 1017,7 -
22.07.2019 18:00:00 30,2 17,9 21 11 N 1017,1 -
22.07.2019 17:00:00 31,1 17,4 24 13 N 1017,6 -
22.07.2019 16:00:00 32,0 16,3 18 10 N 1017,7 -
22.07.2019 15:00:00 32,4 15,8 21 11 N 1018,1 -
22.07.2019 14:00:00 31,9 15,8 21 11 N 1018,5 -
22.07.2019 13:00:00 31,4 17,7 21 11 N 1018,9 -
22.07.2019 12:00:00 30,6 15,8 24 13 N 1019,3 -
22.07.2019 11:00:00 29,9 16,6 28 15 N 1019,3 -
22.07.2019 10:00:00 28,4 17,2 26 14 N 1019,4 -
22.07.2019 09:00:00 26,6 15,6 26 14 N 1019,5 -
22.07.2019 08:00:00 24,7 14,4 28 15 N 1019,6 -
22.07.2019 07:00:00 22,7 12,6 28 15 NNE 1019,6 -
22.07.2019 06:00:00 21,8 11,5 26 14 NNE 1019,6 -
22.07.2019 05:00:00 20,3 10,6 21 11 N 1020,3 -
22.07.2019 04:00:00 20,1 10,4 18 10 N 1020,6 -
22.07.2019 03:00:00 20,3 8,6 16 9 N 1020,7 -
22.07.2019 02:00:00 20,9 8,8 13 7 N 1021,0 -
22.07.2019 01:00:00 21,4 8,9 15 8 NNE 1020,9 -
22.07.2019 00:00:00 22,2 9,3 21 11 NNE 1020,8 -
21.07.2019 23:00:00 22,0 11,4 21 11 NNE 1020,8 -
21.07.2019 22:00:00 21,7 11,7 15 8 NNE 1020,7 -
21.07.2019 21:00:00 23,0 12,0 11 6 NNE 1020,1 -
21.07.2019 20:00:00 26,0 12,8 5 3 N 1019,3 -
21.07.2019 19:00:00 28,3 13,7 8 4 N 1018,7 -
21.07.2019 18:00:00 29,4 14,0 11 6 N 1018,5 -
21.07.2019 17:00:00 29,9 13,6 18 10 N 1018,8 -
21.07.2019 16:00:00 30,7 14,3 16 9 N 1018,8 -
21.07.2019 15:00:00 31,1 13,8 13 7 NNE 1019,0 -
21.07.2019 14:00:00 30,6 14,2 13 7 N 1019,2 -
21.07.2019 13:00:00 30,1 13,8 11 6 NNW 1019,3 -
21.07.2019 12:00:00 29,2 13,0 15 8 NE 1019,6 -
21.07.2019 11:00:00 28,6 12,8 11 6 NNW 1019,7 -
21.07.2019 10:00:00 27,6 12,4 9 5 NE 1019,7 -
21.07.2019 09:00:00 26,4 14,1 8 4 NNE 1019,7 -
21.07.2019 08:00:00 24,2 16,4 13 7 NNE 1019,9 -
21.07.2019 07:00:00 20,9 15,4 16 9 N 1020,2 -
21.07.2019 06:00:00 18,5 11,5 11 6 N 1020,6 -
21.07.2019 05:00:00 18,3 8,2 8 4 NNW 1020,5 -
21.07.2019 04:00:00 17,7 8,7 5 3 NNW 1020,7 -
21.07.2019 03:00:00 17,5 9,8 5 3 N 1020,9 -
21.07.2019 02:00:00 17,7 11,2 0 0 N 1021,1 -
21.07.2019 01:00:00 18,8 14,4 2 1 WSW 1021,2 -
21.07.2019 00:00:00 19,4 14,6 4 2 SE 1021,0 -
20.07.2019 23:00:00 20,3 14,6 5 3 E 1020,6 -
20.07.2019 22:00:00 21,2 15,0 9 5 ENE 1020,4 -
20.07.2019 21:00:00 21,5 13,1 5 3 N 1020,0 -
20.07.2019 20:00:00 25,5 13,9 5 3 WSW 1019,0 -
20.07.2019 19:00:00 28,0 14,9 9 5 SW 1018,3 -
20.07.2019 18:00:00 29,4 15,1 9 5 S 1018,1 -
20.07.2019 17:00:00 30,6 14,2 11 6 SW 1017,9 -
20.07.2019 16:00:00 30,9 14,9 13 7 E 1017,9 -
20.07.2019 15:00:00 31,1 15,9 15 8 SSW 1018,0 -
20.07.2019 14:00:00 30,6 16,9 11 6 S 1018,1 -
20.07.2019 13:00:00 29,8 16,9 11 6 S 1018,3 -
20.07.2019 12:00:00 28,7 14,1 8 4 S 1018,4 -
20.07.2019 11:00:00 27,6 14,2 8 4 S 1018,4 -
20.07.2019 10:00:00 26,8 13,8 9 5 NNE 1018,3 -
20.07.2019 09:00:00 25,3 15,5 9 5 NNE 1018,3 -
20.07.2019 08:00:00 22,7 14,2 15 8 NE 1018,5 -
20.07.2019 07:00:00 20,0 12,5 15 8 NNE 1018,6 -
20.07.2019 06:00:00 17,5 13,7 13 7 NNE 1018,8 -
20.07.2019 05:00:00 17,3 13,5 9 5 N 1018,6 -
20.07.2019 04:00:00 17,0 14,2 11 6 N 1018,5 -
20.07.2019 03:00:00 16,2 12,7 8 4 NW 1018,7 -
20.07.2019 02:00:00 16,6 11,3 5 3 N 1018,9 -
20.07.2019 01:00:00 16,7 10,5 5 3 NNE 1018,9 -
20.07.2019 00:00:00 17,0 11,7 8 4 ENE 1019,1 -
19.07.2019 23:00:00 19,0 10,8 4 2 E 1018,7 -
19.07.2019 22:00:00 20,0 14,9 15 8 NE 1018,1 -
19.07.2019 21:00:00 20,9 13,3 18 10 NE 1017,4 -
19.07.2019 20:00:00 23,2 12,2 13 7 NE 1016,9 -
19.07.2019 19:00:00 25,5 12,3 15 8 NE 1015,9 -
19.07.2019 18:00:00 26,7 13,0 15 8 NE 1015,4 -
19.07.2019 17:00:00 27,5 13,0 15 8 NE 1015,2 -
19.07.2019 16:00:00 28,4 14,2 8 4 NE 1015,1 -
19.07.2019 15:00:00 28,5 13,9 8 4 ESE 1015,4 -
19.07.2019 14:00:00 28,4 14,2 13 7 N 1015,5 -
19.07.2019 13:00:00 27,3 14,6 9 5 NNE 1015,8 -
19.07.2019 12:00:00 27,2 13,5 9 5 NE 1015,9 -
19.07.2019 11:00:00 26,4 14,8 9 5 NNE 1015,9 -
19.07.2019 10:00:00 25,4 15,1 13 7 ENE 1015,8 -
19.07.2019 09:00:00 24,2 15,3 13 7 ENE 1015,6 -
19.07.2019 08:00:00 22,8 17,6 5 3 NNE 1015,4 -
19.07.2019 07:00:00 19,2 15,2 8 4 NE 1015,6 -
19.07.2019 06:00:00 18,1 13,1 9 5 NE 1015,6 -
19.07.2019 05:00:00 17,9 11,9 11 6 NNE 1015,4 -
19.07.2019 04:00:00 17,1 9,9 9 5 N 1015,6 -
19.07.2019 03:00:00 17,2 11,2 8 4 N 1015,7 -
19.07.2019 02:00:00 15,8 13,7 5 3 N 1016,1 -
19.07.2019 01:00:00 16,4 15,4 0 0 N 1016,0 -
19.07.2019 00:00:00 17,3 16,1 0 0 N 1015,8 -
18.07.2019 23:00:00 18,0 16,6 0 0 N 1015,5 -
18.07.2019 22:00:00 18,8 16,9 0 0 N 1015,1 -
18.07.2019 21:00:00 20,2 16,4 5 3 SSW 1014,2 -
18.07.2019 20:00:00 22,9 15,4 8 4 SSW 1013,2 -
18.07.2019 19:00:00 25,9 13,0 8 4 NNW 1012,1 -
18.07.2019 18:00:00 26,7 13,4 5 3 SSE 1011,7 -
18.07.2019 17:00:00 28,1 13,9 8 4 E 1011,8 -
18.07.2019 16:00:00 28,9 13,9 13 7 SE 1011,8 -
18.07.2019 15:00:00 28,6 14,0 13 7 SW 1011,9 -
18.07.2019 14:00:00 28,4 14,9 11 6 W 1011,9 -
18.07.2019 13:00:00 27,6 14,5 8 4 SSW 1011,9 -
18.07.2019 12:00:00 27,0 13,3 9 5 NNE 1012,1 -
18.07.2019 11:00:00 25,9 13,3 8 4 W 1012,4 -
18.07.2019 10:00:00 24,3 11,9 4 2 WNW 1012,2 -
18.07.2019 09:00:00 22,2 12,1 4 2 SW 1012,3 -
18.07.2019 08:00:00 20,5 12,2 5 3 SSE 1012,6 -
18.07.2019 07:00:00 17,9 14,9 13 7 NE 1012,8 -
18.07.2019 06:00:00 15,9 14,5 15 8 NNE 1013,1 -
18.07.2019 05:00:00 16,2 14,7 16 9 NNE 1013,2 -
18.07.2019 04:00:00 16,4 14,7 18 10 NNE 1013,2 -
18.07.2019 03:00:00 16,5 15,5 18 10 NNE 1013,1 -
18.07.2019 02:00:00 16,5 15,3 22 12 NNE 1013,3 -
18.07.2019 01:00:00 16,7 15,3 22 12 NNE 1013,3 -
18.07.2019 00:00:00 16,8 14,7 24 13 NNE 1013,3 -
17.07.2019 23:00:00 17,2 13,8 24 13 NNE 1013,2 -
17.07.2019 22:00:00 18,1 12,9 24 13 N 1012,9 -
17.07.2019 21:00:00 19,0 10,8 24 13 N 1012,5 -
17.07.2019 20:00:00 21,3 11,3 21 11 N 1012,0 -
17.07.2019 19:00:00 23,2 12,5 26 14 N 1011,4 -
17.07.2019 18:00:00 24,4 13,2 26 14 NNW 1011,3 -
17.07.2019 17:00:00 25,8 14,8 18 10 NNW 1011,3 -
17.07.2019 16:00:00 25,8 14,2 21 11 NNW 1011,4 -
17.07.2019 15:00:00 26,1 14,2 22 12 NW 1011,6 -
17.07.2019 14:00:00 25,9 14,6 18 10 NNW 1011,6 -
17.07.2019 13:00:00 25,6 14,6 16 9 N 1011,8 -
17.07.2019 12:00:00 25,2 14,9 18 10 SE 1011,8 -
17.07.2019 11:00:00 23,9 16,1 21 11 N 1011,8 -
17.07.2019 10:00:00 22,2 18,7 16 9 NNW 1012,1 -
17.07.2019 09:00:00 20,7 19,5 16 9 NNW 1012,1 -
17.07.2019 08:00:00 18,5 18,1 16 9 NNW 1012,2 0,0
17.07.2019 07:00:00 16,7 16,3 18 10 N 1012,2 -
17.07.2019 06:00:00 15,8 15,4 16 9 N 1012,1 -
17.07.2019 05:00:00 16,0 15,6 18 10 N 1011,9 -
17.07.2019 04:00:00 16,1 15,6 21 11 N 1011,7 -
17.07.2019 03:00:00 16,2 15,5 21 11 NNW 1011,6 -
17.07.2019 02:00:00 16,4 15,5 21 11 N 1011,7 -
17.07.2019 01:00:00 17,4 16,7 16 9 N 1011,8 -
17.07.2019 00:00:00 18,0 17,1 26 14 N 1011,5 -
16.07.2019 23:00:00 18,2 17,3 21 11 N 1011,4 -
16.07.2019 22:00:00 17,8 16,9 16 9 N 1011,5 -
16.07.2019 21:00:00 17,9 17,2 16 9 N 1010,4 -

tt = temperature
td = dewpoint
ff = wind speed
dd = wind direction
ppp = reduced air pressure
rr = precipitation

Next stations